createdAt,value
2018-07-20T00:01:12.562Z,69.50
2018-07-20T00:03:41.976Z,69.15
2018-07-20T00:06:10.736Z,70.05
2018-07-20T00:08:39.519Z,70.37
2018-07-20T00:11:08.993Z,70.47
2018-07-20T00:13:37.837Z,71.18
2018-07-20T00:16:07.608Z,71.76
2018-07-20T00:18:37.110Z,71.99
2018-07-20T00:21:05.995Z,72.38
2018-07-20T00:23:34.796Z,72.94
2018-07-20T00:26:03.795Z,71.63
2018-07-20T00:28:32.747Z,71.60
2018-07-20T00:31:01.896Z,71.62
2018-07-20T00:33:31.031Z,70.92
2018-07-20T00:35:59.984Z,71.40
2018-07-20T00:38:28.793Z,71.84
2018-07-20T00:40:57.651Z,71.14
2018-07-20T00:43:27.663Z,70.98
2018-07-20T00:45:56.486Z,71.29
2018-07-20T00:48:25.222Z,70.65
2018-07-20T00:50:54.085Z,71.35
2018-07-20T00:53:23.291Z,71.30
2018-07-20T00:55:52.572Z,71.67
2018-07-20T00:58:21.350Z,72.31
2018-07-20T01:00:50.321Z,71.82
2018-07-20T01:03:19.692Z,71.67
2018-07-20T01:05:48.489Z,72.36
2018-07-20T01:08:17.319Z,71.69
2018-07-20T01:10:46.654Z,70.94
2018-07-20T01:13:15.440Z,70.77
2018-07-20T01:15:44.691Z,71.77
2018-07-20T01:18:14.058Z,70.82
2018-07-20T01:20:42.865Z,71.53
2018-07-20T01:23:12.331Z,71.34
2018-07-20T01:25:41.153Z,70.74
2018-07-20T01:28:09.927Z,71.30
2018-07-20T01:30:38.744Z,71.41
2018-07-20T01:33:07.615Z,71.85
2018-07-20T01:35:36.576Z,70.75
2018-07-20T01:38:05.396Z,71.48
2018-07-20T01:40:34.185Z,71.11
2018-07-20T01:43:03.834Z,70.47
2018-07-20T01:45:32.791Z,71.20
2018-07-20T01:48:01.899Z,70.70
2018-07-20T01:50:31.010Z,70.99
2018-07-20T01:53:01.112Z,70.70
2018-07-20T01:55:30.775Z,70.40
2018-07-20T01:57:59.543Z,70.42
2018-07-20T02:00:28.338Z,70.80
2018-07-20T02:02:58.465Z,71.52
2018-07-20T02:05:27.317Z,71.27
2018-07-20T02:07:56.148Z,70.59
2018-07-20T02:10:25.637Z,71.52
2018-07-20T02:12:54.444Z,71.39
2018-07-20T02:15:23.879Z,72.09
2018-07-20T02:17:53.210Z,72.44
2018-07-20T02:20:21.967Z,73.12
2018-07-20T02:22:51.131Z,72.97
2018-07-20T02:25:19.882Z,73.28
2018-07-20T02:27:48.641Z,73.63
2018-07-20T02:30:17.444Z,73.35
2018-07-20T02:32:46.183Z,74.54
2018-07-20T02:35:15.047Z,73.91
2018-07-20T02:37:43.960Z,74.06
2018-07-20T02:40:13.512Z,73.43
2018-07-20T02:42:42.278Z,72.44
2018-07-20T02:45:11.036Z,73.77
2018-07-20T02:47:40.198Z,73.12
2018-07-20T02:50:09.039Z,73.71
2018-07-20T02:52:37.919Z,73.45
2018-07-20T02:55:07.601Z,73.57
2018-07-20T02:57:36.776Z,73.57
2018-07-20T03:00:05.546Z,74.24
2018-07-20T03:02:34.771Z,73.89
2018-07-20T03:05:03.632Z,73.59
2018-07-20T03:07:34.089Z,73.71
2018-07-20T03:10:04.026Z,75.10
2018-07-20T03:12:33.584Z,74.95
2018-07-20T03:15:02.597Z,74.45
2018-07-20T03:17:34.482Z,74.35
2018-07-20T03:20:03.967Z,74.90
2018-07-20T03:22:33.475Z,74.11
2018-07-20T03:25:02.487Z,74.13
2018-07-20T03:27:32.073Z,72.84
2018-07-20T03:30:01.243Z,72.22
2018-07-20T03:32:30.358Z,71.18
2018-07-20T03:34:59.481Z,69.39
2018-07-20T03:37:28.611Z,69.01
2018-07-20T03:39:58.596Z,67.66
2018-07-20T03:42:28.111Z,67.44
2018-07-20T03:44:56.860Z,66.18
2018-07-20T03:47:25.719Z,65.77
2018-07-20T03:49:54.484Z,65.19
2018-07-20T03:52:23.520Z,64.02
2018-07-20T03:54:52.442Z,63.35
2018-07-20T03:57:22.625Z,62.73
2018-07-20T03:59:51.363Z,62.46
2018-07-20T04:02:20.818Z,61.86
2018-07-20T04:04:49.646Z,61.57
2018-07-20T04:07:18.390Z,61.59
2018-07-20T04:09:47.825Z,61.99
2018-07-20T04:12:16.683Z,61.79
2018-07-20T04:14:45.452Z,61.78
2018-07-20T04:17:14.882Z,62.90
2018-07-20T04:19:44.379Z,64.78
2018-07-20T04:22:14.082Z,64.96
2018-07-20T04:24:42.955Z,65.10
2018-07-20T04:27:11.729Z,66.25
2018-07-20T04:29:40.560Z,67.09
2018-07-20T04:32:09.346Z,67.45
2018-07-20T04:34:38.421Z,66.54
2018-07-20T04:37:07.208Z,67.41
2018-07-20T04:39:36.675Z,67.28
2018-07-20T04:42:05.509Z,67.85
2018-07-20T04:44:34.283Z,68.60
2018-07-20T04:47:03.256Z,68.12
2018-07-20T04:49:32.803Z,67.65
2018-07-20T04:52:03.148Z,67.69
2018-07-20T04:54:33.208Z,67.63
2018-07-20T04:57:02.971Z,68.05
2018-07-20T04:59:32.761Z,68.43
2018-07-20T05:02:03.204Z,68.87
2018-07-20T05:04:32.798Z,68.71
2018-07-20T05:07:01.953Z,68.78
2018-07-20T05:09:32.646Z,68.66
2018-07-20T05:12:03.187Z,68.47
2018-07-20T05:14:32.419Z,68.66
2018-07-20T05:17:02.563Z,68.60
2018-07-20T05:19:33.092Z,68.24
2018-07-20T05:22:02.455Z,68.16
2018-07-20T05:24:32.624Z,68.23
2018-07-20T05:27:02.470Z,68.48
2018-07-20T05:29:31.567Z,68.00
2018-07-20T05:32:01.501Z,68.16
2018-07-20T05:34:31.682Z,67.83
2018-07-20T05:37:00.579Z,67.08
2018-07-20T05:39:30.987Z,67.74
2018-07-20T05:41:59.963Z,66.57
2018-07-20T05:44:28.733Z,66.46
2018-07-20T05:46:57.607Z,66.25
2018-07-20T05:49:26.326Z,66.55
2018-07-20T05:51:55.215Z,66.29
2018-07-20T05:54:24.080Z,66.05
2018-07-20T05:56:53.726Z,66.29
2018-07-20T05:59:22.463Z,65.69
2018-07-20T06:01:52.288Z,65.16
2018-07-20T06:04:21.041Z,65.93
2018-07-20T06:06:49.843Z,65.36
2018-07-20T06:09:18.607Z,65.17
2018-07-20T06:11:48.103Z,65.76
2018-07-20T06:14:16.859Z,64.76
2018-07-20T06:16:45.711Z,64.80
2018-07-20T06:19:14.993Z,64.79
2018-07-20T06:21:43.777Z,63.06
2018-07-20T06:24:13.147Z,64.00
2018-07-20T06:26:41.888Z,63.91
2018-07-20T06:29:11.685Z,62.83
2018-07-20T06:31:40.441Z,62.45
2018-07-20T06:34:09.155Z,62.76
2018-07-20T06:36:37.949Z,60.88
2018-07-20T06:39:09.462Z,61.06
2018-07-20T06:41:38.273Z,60.79
2018-07-20T06:44:07.051Z,60.56
2018-07-20T06:46:36.399Z,60.43
2018-07-20T06:49:05.410Z,60.01
2018-07-20T06:51:34.678Z,59.72
2018-07-20T06:54:03.581Z,58.73
2018-07-20T06:56:33.624Z,58.63
2018-07-20T06:59:02.541Z,58.72
2018-07-20T07:01:33.251Z,58.65
2018-07-20T07:04:03.578Z,57.79
2018-07-20T07:06:33.234Z,58.25
2018-07-20T07:09:02.411Z,57.08
2018-07-20T07:11:32.889Z,56.80
2018-07-20T07:14:03.662Z,56.23
2018-07-20T07:16:33.401Z,57.09
2018-07-20T07:19:02.963Z,56.98
2018-07-20T07:21:32.416Z,55.46
2018-07-20T07:24:02.009Z,54.97
2018-07-20T07:26:31.460Z,54.52
2018-07-20T07:29:01.279Z,54.08
2018-07-20T07:31:30.425Z,55.15
2018-07-20T07:33:59.427Z,54.56
2018-07-20T07:36:28.262Z,53.82
2018-07-20T07:38:57.770Z,53.04
2018-07-20T07:41:26.527Z,53.61
2018-07-20T07:43:55.340Z,51.07
2018-07-20T07:46:24.156Z,52.21
2018-07-20T07:48:52.930Z,52.10
2018-07-20T07:51:21.756Z,52.20
2018-07-20T07:53:50.576Z,51.12
2018-07-20T07:56:19.896Z,51.54
2018-07-20T07:58:48.739Z,51.11
2018-07-20T08:01:17.480Z,51.31
2018-07-20T08:03:46.599Z,51.67
2018-07-20T08:06:15.320Z,50.71
2018-07-20T08:08:44.473Z,49.45
2018-07-20T08:11:13.742Z,49.69
2018-07-20T08:13:42.567Z,49.19
2018-07-20T08:16:11.285Z,49.04
2018-07-20T08:18:40.615Z,48.90
2018-07-20T08:21:09.387Z,47.58
2018-07-20T08:23:38.790Z,48.74
2018-07-20T08:26:07.533Z,48.08
2018-07-20T08:28:37.363Z,48.66
2018-07-20T08:31:06.099Z,50.02
2018-07-20T08:33:34.845Z,48.48
2018-07-20T08:36:03.779Z,48.16
2018-07-20T08:38:33.243Z,48.82
2018-07-20T08:41:02.255Z,47.42
2018-07-20T08:43:31.203Z,47.72
2018-07-20T08:46:00.372Z,47.38
2018-07-20T08:48:29.270Z,47.97
2018-07-20T08:50:58.462Z,46.83
2018-07-20T08:53:27.247Z,45.58
2018-07-20T08:55:56.925Z,45.47
2018-07-20T08:58:25.818Z,45.15
2018-07-20T09:00:54.739Z,45.52
2018-07-20T09:03:24.016Z,46.47
2018-07-20T09:05:52.899Z,45.41
2018-07-20T09:08:21.688Z,44.79
2018-07-20T09:10:51.245Z,46.20
2018-07-20T09:13:19.955Z,45.16
2018-07-20T09:15:48.749Z,44.63
2018-07-20T09:18:18.841Z,44.92
2018-07-20T09:20:47.717Z,44.25
2018-07-20T09:23:17.134Z,44.08
2018-07-20T09:25:46.080Z,43.94
2018-07-20T09:28:15.489Z,43.49
2018-07-20T09:30:44.551Z,43.27
2018-07-20T09:33:13.299Z,44.73
2018-07-20T09:35:42.097Z,44.78
2018-07-20T09:38:11.658Z,41.19
2018-07-20T09:40:40.447Z,41.44
2018-07-20T09:43:09.296Z,40.76
2018-07-20T09:45:38.121Z,41.12
2018-07-20T09:48:06.911Z,41.62
2018-07-20T09:50:35.788Z,40.59
2018-07-20T09:53:04.640Z,39.67
2018-07-20T09:55:34.359Z,40.69
2018-07-20T09:58:03.264Z,40.26
2018-07-20T10:00:38.685Z,40.91
2018-07-20T10:03:08.175Z,41.22
2018-07-20T10:05:36.917Z,40.99
2018-07-20T10:08:05.786Z,40.84
2018-07-20T10:10:35.454Z,39.81
2018-07-20T10:13:04.459Z,38.53
2018-07-20T10:15:33.377Z,39.71
2018-07-20T10:18:03.095Z,40.29
2018-07-20T10:20:32.354Z,39.62
2018-07-20T10:23:02.268Z,38.79
2018-07-20T10:25:31.667Z,38.72
2018-07-20T10:28:01.637Z,38.49
2018-07-20T10:30:30.843Z,38.53
2018-07-20T10:32:59.899Z,38.71
2018-07-20T10:35:28.767Z,37.63
2018-07-20T10:37:57.612Z,37.14
2018-07-20T10:40:28.116Z,37.88
2018-07-20T10:42:58.899Z,38.33
2018-07-20T10:45:27.766Z,37.03
2018-07-20T10:47:56.661Z,36.99
2018-07-20T10:50:25.431Z,35.39
2018-07-20T10:52:54.433Z,35.70
2018-07-20T10:55:24.169Z,36.86
2018-07-20T10:57:52.952Z,36.84
2018-07-20T11:00:21.692Z,37.78
2018-07-20T11:02:50.893Z,36.67
2018-07-20T11:05:19.688Z,36.07
2018-07-20T11:07:48.435Z,36.94
2018-07-20T11:10:17.960Z,36.54
2018-07-20T11:12:46.734Z,36.26
2018-07-20T11:15:15.498Z,35.87
2018-07-20T11:17:45.481Z,36.19
2018-07-20T11:20:14.386Z,35.40
2018-07-20T11:22:43.738Z,35.46
2018-07-20T11:25:12.536Z,36.52
2018-07-20T11:27:41.799Z,34.36
2018-07-20T11:30:10.563Z,35.46
2018-07-20T11:32:39.556Z,34.77
2018-07-20T11:35:08.341Z,35.22
2018-07-20T11:37:37.083Z,34.57
2018-07-20T11:40:06.510Z,35.49
2018-07-20T11:42:35.243Z,34.94
2018-07-20T11:45:04.120Z,33.88
2018-07-20T11:47:33.249Z,34.05
2018-07-20T11:50:02.502Z,33.26
2018-07-20T11:52:32.007Z,34.04
2018-07-20T11:55:01.651Z,33.08
2018-07-20T11:57:31.788Z,34.45
2018-07-20T12:00:01.828Z,33.75
2018-07-20T12:02:31.609Z,33.09
2018-07-20T12:05:00.486Z,32.96
2018-07-20T12:07:29.377Z,33.54
2018-07-20T12:09:58.801Z,33.18
2018-07-20T12:12:27.593Z,33.56
2018-07-20T12:14:56.398Z,32.58
2018-07-20T12:17:25.218Z,32.85
2018-07-20T12:19:55.861Z,33.26
2018-07-20T12:22:25.490Z,32.30
2018-07-20T12:24:54.272Z,32.94
2018-07-20T12:27:23.082Z,31.89
2018-07-20T12:29:52.372Z,31.40
2018-07-20T12:32:21.134Z,31.90
2018-07-20T12:34:50.670Z,32.57
2018-07-20T12:37:19.453Z,31.93
2018-07-20T12:39:48.931Z,31.75
2018-07-20T12:42:17.701Z,31.96
2018-07-20T12:44:47.541Z,31.02
2018-07-20T12:47:16.563Z,31.40
2018-07-20T12:49:45.411Z,30.78
2018-07-20T12:52:14.373Z,29.76
2018-07-20T12:54:43.120Z,29.97
2018-07-20T12:57:12.517Z,29.40
2018-07-20T12:59:41.310Z,30.46
2018-07-20T13:02:11.186Z,28.82
2018-07-20T13:04:39.936Z,28.91
2018-07-20T13:07:08.668Z,28.76
2018-07-20T13:09:38.174Z,28.34
2018-07-20T13:12:07.213Z,28.06
2018-07-20T13:14:35.871Z,27.99
2018-07-20T13:17:04.627Z,27.28
2018-07-20T13:19:35.072Z,28.52
2018-07-20T13:22:04.099Z,27.58
2018-07-20T13:24:34.115Z,28.08
2018-07-20T13:27:03.698Z,27.70
2018-07-20T13:29:33.142Z,27.50
2018-07-20T13:32:02.319Z,27.68
2018-07-20T13:34:32.227Z,28.64
2018-07-20T13:37:01.884Z,27.74
2018-07-20T13:39:31.894Z,26.97
2018-07-20T13:42:00.926Z,28.34
2018-07-20T13:44:29.983Z,27.78
2018-07-20T13:46:58.831Z,28.66
2018-07-20T13:49:27.597Z,28.57
2018-07-20T13:51:56.498Z,28.83
2018-07-20T13:54:25.354Z,27.80
2018-07-20T13:56:54.844Z,28.35
2018-07-20T13:59:23.568Z,28.50
2018-07-20T14:01:53.053Z,27.81
2018-07-20T14:04:21.808Z,28.34
2018-07-20T14:06:50.552Z,28.66
2018-07-20T14:09:19.374Z,27.77
2018-07-20T14:11:48.864Z,28.24
2018-07-20T14:14:17.711Z,28.19
2018-07-20T14:16:46.512Z,28.92
2018-07-20T14:19:16.157Z,27.90
2018-07-20T14:21:45.110Z,28.89
2018-07-20T14:24:14.453Z,29.19
2018-07-20T14:26:43.243Z,29.08
2018-07-20T14:29:12.576Z,29.49
2018-07-20T14:31:41.318Z,28.49
2018-07-20T14:34:10.075Z,28.62
2018-07-20T14:36:38.877Z,29.18
2018-07-20T14:39:12.233Z,28.60
2018-07-20T14:41:42.328Z,28.32
2018-07-20T14:44:11.134Z,29.39
2018-07-20T14:46:39.908Z,29.04
2018-07-20T14:49:08.770Z,29.58
2018-07-20T14:51:37.577Z,28.83
2018-07-20T14:54:06.467Z,28.90
2018-07-20T14:56:35.980Z,30.04
2018-07-20T14:59:04.888Z,29.22
2018-07-20T15:01:34.435Z,28.32
2018-07-20T15:04:03.356Z,28.38
2018-07-20T15:06:32.464Z,28.76
2018-07-20T15:09:01.640Z,28.86
2018-07-20T15:11:31.266Z,28.27
2018-07-20T15:14:00.372Z,29.80
2018-07-20T15:16:29.357Z,27.95
2018-07-20T15:18:58.833Z,28.19
2018-07-20T15:21:27.603Z,28.39
2018-07-20T15:23:57.422Z,27.66
2018-07-20T15:26:26.198Z,29.71
2018-07-20T15:28:55.780Z,28.84
2018-07-20T15:31:24.593Z,30.55
2018-07-20T15:33:53.431Z,30.79
2018-07-20T15:36:22.219Z,31.50
2018-07-20T15:38:52.003Z,32.06
2018-07-20T15:41:21.402Z,32.98
2018-07-20T15:43:50.199Z,33.22
2018-07-20T15:46:19.112Z,33.61
2018-07-20T15:48:47.800Z,34.49
2018-07-20T15:51:16.846Z,34.55
2018-07-20T15:53:45.700Z,33.06
2018-07-20T15:56:15.087Z,32.24
2018-07-20T15:58:43.922Z,32.40
2018-07-20T16:01:12.724Z,31.27
2018-07-20T16:03:42.123Z,30.73
2018-07-20T16:06:10.914Z,29.66
2018-07-20T16:08:39.652Z,28.35
2018-07-20T16:11:09.765Z,26.69
2018-07-20T16:13:38.496Z,25.82
2018-07-20T16:16:07.311Z,26.68
2018-07-20T16:18:36.883Z,26.98
2018-07-20T16:21:05.999Z,27.54
2018-07-20T16:23:35.363Z,27.74
2018-07-20T16:26:04.268Z,28.78
2018-07-20T16:28:33.815Z,29.30
2018-07-20T16:31:03.139Z,30.35
2018-07-20T16:33:32.391Z,30.31
2018-07-20T16:36:01.411Z,29.33
2018-07-20T16:38:30.920Z,30.01
2018-07-20T16:40:59.967Z,29.61
2018-07-20T16:44:31.997Z,27.22
2018-07-20T16:47:00.978Z,26.74
2018-07-20T16:49:29.907Z,28.02
2018-07-20T16:51:58.769Z,28.56
2018-07-20T16:54:27.511Z,28.09
2018-07-20T16:56:56.875Z,27.29
2018-07-20T16:59:25.624Z,27.62
2018-07-20T17:01:55.569Z,27.41
2018-07-20T17:04:24.371Z,27.49
2018-07-20T17:06:53.204Z,27.75
2018-07-20T17:09:22.143Z,28.86
2018-07-20T17:11:51.302Z,28.59
2018-07-20T17:14:20.115Z,28.91
2018-07-20T17:16:48.903Z,29.20
2018-07-20T17:19:18.540Z,30.11
2018-07-20T17:21:47.363Z,30.71
2018-07-20T17:24:16.726Z,30.72
2018-07-20T17:26:45.483Z,29.59
2018-07-20T17:29:15.131Z,30.44
2018-07-20T17:31:43.927Z,29.90
2018-07-20T17:34:12.776Z,28.51
2018-07-20T17:36:41.629Z,28.19
2018-07-20T17:39:12.693Z,27.22
2018-07-20T17:41:41.676Z,26.97
2018-07-20T17:44:10.895Z,26.86
2018-07-20T17:46:39.678Z,26.63
2018-07-20T17:49:08.509Z,26.71
2018-07-20T17:51:37.361Z,26.03
2018-07-20T17:54:06.187Z,25.94
2018-07-20T17:56:35.759Z,26.60
2018-07-20T17:59:04.584Z,26.87
2018-07-20T18:01:34.372Z,27.58
2018-07-20T18:04:03.583Z,27.93
2018-07-20T18:06:32.628Z,27.97
2018-07-20T18:09:01.594Z,28.05
2018-07-20T18:11:31.450Z,29.03
2018-07-20T18:14:00.405Z,29.97
2018-07-20T18:16:29.228Z,30.86
2018-07-20T18:18:58.819Z,30.16
2018-07-20T18:21:27.955Z,30.99
2018-07-20T18:23:57.208Z,30.96
2018-07-20T18:26:26.009Z,32.61
2018-07-20T18:28:55.723Z,31.77
2018-07-20T18:31:24.595Z,33.13
2018-07-20T18:33:53.402Z,32.82
2018-07-20T18:36:22.167Z,33.42
2018-07-20T18:38:51.482Z,33.04
2018-07-20T18:41:20.288Z,34.22
2018-07-20T18:43:49.050Z,33.72
2018-07-20T18:46:17.878Z,34.29
2018-07-20T18:48:46.647Z,35.43
2018-07-20T18:51:15.574Z,35.73
2018-07-20T18:53:44.346Z,35.76
2018-07-20T18:56:14.030Z,35.86
2018-07-20T18:58:42.817Z,37.01
2018-07-20T19:01:11.567Z,37.30
2018-07-20T19:03:41.049Z,36.73
2018-07-20T19:06:09.884Z,37.74
2018-07-20T19:08:38.700Z,38.80
2018-07-20T19:11:08.837Z,39.21
2018-07-20T19:13:37.599Z,37.87
2018-07-20T19:16:06.409Z,38.32
2018-07-20T19:18:35.914Z,39.19
2018-07-20T19:21:04.657Z,39.32
2018-07-20T19:23:34.198Z,39.32
2018-07-20T19:26:03.175Z,39.79
2018-07-20T19:28:33.307Z,40.67
2018-07-20T19:31:02.295Z,40.05
2018-07-20T19:33:31.460Z,39.92
2018-07-20T19:36:00.927Z,41.38
2018-07-20T19:38:30.826Z,41.48
2018-07-20T19:40:59.759Z,42.04
2018-07-20T19:43:28.558Z,41.34
2018-07-20T19:45:57.380Z,42.88
2018-07-20T19:48:26.200Z,42.45
2018-07-20T19:50:55.039Z,43.48
2018-07-20T19:53:23.868Z,42.81
2018-07-20T19:55:53.423Z,42.65
2018-07-20T19:58:22.165Z,43.13
2018-07-20T20:00:50.949Z,43.90
2018-07-20T20:03:20.315Z,44.43
2018-07-20T20:05:49.116Z,44.25
2018-07-20T20:08:17.989Z,44.38
2018-07-20T20:10:47.410Z,45.74
2018-07-20T20:13:16.247Z,45.63
2018-07-20T20:15:45.081Z,44.94
2018-07-20T20:18:14.547Z,45.01
2018-07-20T20:20:43.340Z,45.64
2018-07-20T20:23:13.389Z,45.81
2018-07-20T20:25:42.290Z,46.59
2018-07-20T20:28:11.549Z,47.08
2018-07-20T20:30:40.307Z,46.58
2018-07-20T20:33:09.082Z,46.17
2018-07-20T20:35:37.885Z,46.75
2018-07-20T20:38:06.739Z,46.42
2018-07-20T20:40:36.222Z,46.72
2018-07-20T20:43:05.089Z,46.58
2018-07-20T20:45:33.873Z,47.04
2018-07-20T20:48:02.823Z,47.06
2018-07-20T20:50:31.954Z,48.04
2018-07-20T20:53:01.397Z,47.78
2018-07-20T20:55:32.573Z,47.84
2018-07-20T20:58:01.517Z,47.75
2018-07-20T21:00:30.455Z,47.47
2018-07-20T21:03:00.314Z,48.55
2018-07-20T21:05:29.542Z,48.65
2018-07-20T21:07:58.324Z,48.30
2018-07-20T21:10:27.946Z,48.35
2018-07-20T21:12:56.726Z,48.47
2018-07-20T21:15:25.523Z,49.03
2018-07-20T21:17:55.106Z,48.89
2018-07-20T21:20:23.854Z,49.82
2018-07-20T21:22:53.407Z,49.48
2018-07-20T21:25:22.162Z,50.03
2018-07-20T21:27:51.800Z,49.28
2018-07-20T21:30:20.533Z,49.84
2018-07-20T21:32:49.286Z,50.93
2018-07-20T21:35:18.132Z,51.46
2018-07-20T21:37:46.881Z,51.47
2018-07-20T21:40:16.979Z,51.93
2018-07-20T21:42:45.756Z,53.31
2018-07-20T21:45:14.561Z,53.62
2018-07-20T21:47:43.339Z,53.15
2018-07-20T21:50:12.131Z,54.14
2018-07-20T21:52:41.039Z,53.45
2018-07-20T21:55:10.787Z,54.30
2018-07-20T21:57:39.568Z,54.43
2018-07-20T22:00:14.408Z,53.94
2018-07-20T22:02:44.008Z,53.68
2018-07-20T22:05:12.828Z,53.25
2018-07-20T22:07:41.545Z,53.08
2018-07-20T22:10:11.157Z,52.48
2018-07-20T22:12:39.902Z,52.53
2018-07-20T22:15:09.389Z,51.10
2018-07-20T22:17:39.351Z,50.90
2018-07-20T22:20:09.267Z,50.70
2018-07-20T22:22:38.749Z,51.29
2018-07-20T22:25:07.842Z,50.37
2018-07-20T22:27:37.555Z,51.36
2018-07-20T22:30:09.009Z,51.29
2018-07-20T22:32:37.901Z,51.55
2018-07-20T22:35:07.047Z,51.51
2018-07-20T22:37:35.864Z,52.39
2018-07-20T22:40:06.026Z,52.18
2018-07-20T22:42:34.924Z,53.39
2018-07-20T22:45:04.065Z,52.52
2018-07-20T22:47:33.855Z,53.72
2018-07-20T22:50:03.713Z,54.22
2018-07-20T22:52:33.239Z,54.53
2018-07-20T22:55:03.055Z,54.48
2018-07-20T22:57:33.886Z,55.60
2018-07-20T23:00:04.030Z,55.88
2018-07-20T23:02:34.058Z,55.57
2018-07-20T23:05:03.339Z,55.52
2018-07-20T23:07:32.442Z,56.44
2018-07-20T23:10:02.694Z,56.05
2018-07-20T23:12:34.814Z,56.40
2018-07-20T23:15:05.357Z,57.76
2018-07-20T23:17:34.171Z,57.65
2018-07-20T23:20:03.623Z,57.83
2018-07-20T23:22:34.086Z,58.28
2018-07-20T23:25:04.056Z,58.07
2018-07-20T23:27:33.227Z,59.11
2018-07-20T23:30:05.743Z,58.70
2018-07-20T23:32:34.530Z,59.90
2018-07-20T23:35:03.919Z,60.49
2018-07-20T23:37:33.862Z,60.89
2018-07-20T23:40:03.591Z,60.56
2018-07-20T23:42:33.064Z,61.68
2018-07-20T23:45:03.170Z,61.78
2018-07-20T23:47:32.382Z,61.38
2018-07-20T23:50:02.415Z,61.75
2018-07-20T23:52:31.904Z,62.38
2018-07-20T23:55:01.851Z,62.52
2018-07-20T23:57:31.631Z,63.09
